Cordilheira Alta, Brazil
Current Conditions -  °F | °C
As of 6:00 PM on Tuesday 25 Nov 2014 (Local Time) from SBCH Reporting Station
Overcast Overcast  
Wind Chill: 70°   Ceiling: 2000
Heat Index: 70°   Visibility: 6mi
Dew Point: 68°   Wind: 10mph
Humidity: 94%   Direction: 270°W
Pressure: 29.8"   Gusts: NA
Location:  26.98°S, 52.6°W
Report Text: SBCH 252000Z 27009KT 9999 SCT012 BKN020 OVC080 21/20 Q1009
Loading
Personal Weather Stations






























Interactive Weather Map New forecast layout! Learn more

10-Day Weather Forecast

Advertisements
Track Severe Weather on mobile